createdAt,value
2022-09-27T00:01:12.871Z,9.70
2022-09-27T00:03:39.855Z,10.00
2022-09-27T00:06:20.251Z,9.30
2022-09-27T00:08:52.253Z,10.30
2022-09-27T00:11:48.302Z,10.00
2022-09-27T00:14:15.807Z,10.00
2022-09-27T00:16:43.137Z,8.70
2022-09-27T00:19:20.186Z,9.60
2022-09-27T00:21:47.260Z,9.90
2022-09-27T00:24:14.629Z,9.40
2022-09-27T00:26:41.561Z,9.30
2022-09-27T00:29:09.630Z,9.50
2022-09-27T00:31:37.063Z,9.80
2022-09-27T00:34:04.893Z,9.10
2022-09-27T00:36:32.621Z,9.40
2022-09-27T00:39:02.219Z,9.80
2022-09-27T00:41:30.461Z,9.70
2022-09-27T00:43:58.607Z,9.70
2022-09-27T00:46:31.549Z,8.80
2022-09-27T00:49:17.816Z,9.90
2022-09-27T00:51:46.054Z,9.90
2022-09-27T00:54:15.107Z,9.30
2022-09-27T00:56:42.148Z,9.70
2022-09-27T00:59:10.975Z,9.90
2022-09-27T01:01:37.735Z,10.20
2022-09-27T01:04:08.712Z,9.80
2022-09-27T01:06:35.793Z,9.80
2022-09-27T01:09:02.463Z,10.60
2022-09-27T01:11:46.218Z,10.80
2022-09-27T01:14:15.874Z,9.60
2022-09-27T01:16:51.008Z,9.90
2022-09-27T01:19:36.582Z,10.10
2022-09-27T01:22:08.781Z,9.90
2022-09-27T01:24:37.417Z,9.70
2022-09-27T01:27:22.923Z,9.50
2022-09-27T01:30:03.093Z,9.80
2022-09-27T01:32:37.124Z,9.80
2022-09-27T01:35:10.745Z,9.70
2022-09-27T01:37:45.913Z,10.60
2022-09-27T01:40:12.499Z,9.80
2022-09-27T01:42:47.557Z,10.10
2022-09-27T01:45:25.051Z,9.80
2022-09-27T01:48:13.733Z,9.70
2022-09-27T01:50:48.257Z,9.80
2022-09-27T01:53:27.449Z,10.00
2022-09-27T01:55:55.068Z,9.70
2022-09-27T01:58:51.294Z,9.00
2022-09-27T02:01:18.909Z,9.70
2022-09-27T02:03:49.918Z,9.70
2022-09-27T02:06:19.251Z,9.80
2022-09-27T02:08:49.023Z,9.10
2022-09-27T02:11:15.856Z,9.50
2022-09-27T02:13:53.420Z,9.40
2022-09-27T02:16:28.455Z,9.50
2022-09-27T02:19:14.507Z,9.50
2022-09-27T02:21:50.195Z,9.60
2022-09-27T02:24:20.300Z,9.60
2022-09-27T02:26:49.237Z,9.50
2022-09-27T02:29:15.996Z,9.50
2022-09-27T02:31:42.755Z,8.80
2022-09-27T02:34:13.765Z,9.50
2022-09-27T02:36:40.533Z,9.50
2022-09-27T02:39:07.230Z,9.50
2022-09-27T02:41:33.950Z,9.70
2022-09-27T02:44:03.918Z,9.40
2022-09-27T02:46:43.367Z,9.50
2022-09-27T02:49:17.036Z,9.50
2022-09-27T02:51:50.276Z,9.50
2022-09-27T02:54:37.262Z,9.50
2022-09-27T02:57:03.856Z,9.30
2022-09-27T02:59:44.918Z,9.40
2022-09-27T03:02:23.907Z,9.40
2022-09-27T03:05:02.357Z,9.40
2022-09-27T03:07:29.519Z,9.40
2022-09-27T03:09:56.114Z,9.30
2022-09-27T03:12:26.048Z,9.30
2022-09-27T03:14:57.094Z,9.30
2022-09-27T03:17:23.709Z,9.20
2022-09-27T03:19:50.333Z,9.30
2022-09-27T03:22:17.129Z,9.40
2022-09-27T03:24:44.020Z,10.40
2022-09-27T03:27:10.761Z,9.40
2022-09-27T03:29:37.355Z,10.10
2022-09-27T03:32:03.991Z,9.40
2022-09-27T03:34:30.635Z,9.50
2022-09-27T03:36:57.261Z,9.30
2022-09-27T03:39:23.813Z,9.40
2022-09-27T03:41:50.368Z,9.50
2022-09-27T03:44:16.913Z,9.50
2022-09-27T03:46:43.473Z,9.50
2022-09-27T03:49:10.188Z,9.50
2022-09-27T03:51:37.135Z,9.90
2022-09-27T03:54:03.836Z,9.50
2022-09-27T03:56:30.510Z,9.50
2022-09-27T03:58:57.069Z,9.40
2022-09-27T04:01:23.667Z,9.50
2022-09-27T04:03:50.273Z,9.50
2022-09-27T04:06:17.938Z,9.40
2022-09-27T04:08:44.831Z,9.40
2022-09-27T04:11:11.622Z,10.00
2022-09-27T04:13:38.212Z,8.90
2022-09-27T04:16:04.939Z,8.80
2022-09-27T04:18:31.509Z,9.30
2022-09-27T04:20:58.137Z,9.30
2022-09-27T04:23:29.631Z,9.30
2022-09-27T04:25:56.616Z,9.30
2022-09-27T04:28:23.610Z,9.20
2022-09-27T04:30:50.290Z,9.30
2022-09-27T04:33:16.884Z,9.30
2022-09-27T04:36:02.160Z,9.30
2022-09-27T04:38:28.899Z,9.30
2022-09-27T04:40:55.847Z,9.10
2022-09-27T04:43:22.907Z,9.30
2022-09-27T04:45:49.507Z,9.30
2022-09-27T04:48:16.243Z,9.20
2022-09-27T04:50:42.870Z,9.80
2022-09-27T04:53:13.430Z,9.20
2022-09-27T04:55:39.972Z,9.20
2022-09-27T04:58:06.531Z,9.10
2022-09-27T05:00:33.055Z,9.10
2022-09-27T05:02:59.682Z,9.00
2022-09-27T05:05:26.313Z,8.90
2022-09-27T05:07:52.893Z,10.60
2022-09-27T05:10:19.552Z,9.00
2022-09-27T05:12:46.191Z,10.60
2022-09-27T05:15:12.832Z,8.60
2022-09-27T05:17:39.476Z,9.40
2022-09-27T05:20:06.125Z,10.10
2022-09-27T05:22:32.720Z,9.20
2022-09-27T05:24:59.307Z,9.10
2022-09-27T05:27:25.950Z,8.70
2022-09-27T05:29:53.127Z,9.70
2022-09-27T05:32:19.768Z,9.00
2022-09-27T05:34:46.407Z,9.20
2022-09-27T05:37:13.184Z,9.00
2022-09-27T05:39:39.811Z,9.10
2022-09-27T05:42:08.374Z,9.20
2022-09-27T05:44:35.433Z,9.20
2022-09-27T05:47:04.375Z,9.20
2022-09-27T05:49:31.690Z,9.20
2022-09-27T05:51:58.409Z,10.30
2022-09-27T05:54:25.027Z,9.20
2022-09-27T05:56:58.423Z,8.50
2022-09-27T05:59:25.881Z,9.30
2022-09-27T06:01:52.890Z,9.30
2022-09-27T06:04:19.795Z,9.70
2022-09-27T06:06:46.700Z,9.20
2022-09-27T06:09:13.981Z,8.80
2022-09-27T06:11:43.170Z,9.20
2022-09-27T06:14:14.967Z,8.70
2022-09-27T06:16:41.657Z,9.30
2022-09-27T06:19:09.222Z,9.60
2022-09-27T06:21:36.415Z,10.50
2022-09-27T06:24:03.082Z,10.00
2022-09-27T06:26:29.731Z,9.00
2022-09-27T06:28:56.848Z,8.90
2022-09-27T06:31:23.652Z,9.10
2022-09-27T06:33:50.284Z,8.90
2022-09-27T06:38:44.033Z,9.00
2022-09-27T06:41:10.653Z,8.40
2022-09-27T06:43:37.622Z,7.60
2022-09-27T06:46:04.776Z,10.40
2022-09-27T06:48:37.688Z,10.20
2022-09-27T06:51:04.564Z,9.70
2022-09-27T06:53:31.317Z,8.90
2022-09-27T06:59:05.223Z,9.40
2022-09-27T07:01:32.375Z,9.90
2022-09-27T07:03:59.120Z,10.10
2022-09-27T07:06:25.944Z,8.20
2022-09-27T07:08:53.394Z,9.80
2022-09-27T07:11:20.580Z,8.50
2022-09-27T07:13:50.282Z,9.60
2022-09-27T07:16:19.970Z,8.80
2022-09-27T07:18:50.481Z,9.20
2022-09-27T07:21:20.223Z,9.00
2022-09-27T07:23:46.805Z,9.00
2022-09-27T07:26:25.425Z,8.90
2022-09-27T07:28:53.319Z,8.00
2022-09-27T07:31:24.323Z,10.70
2022-09-27T07:33:52.737Z,9.10
2022-09-27T07:36:19.379Z,8.90
2022-09-27T07:38:46.005Z,8.80
2022-09-27T07:41:15.754Z,9.10
2022-09-27T07:43:44.159Z,8.80
2022-09-27T07:46:11.253Z,8.90
2022-09-27T07:48:37.982Z,8.80
2022-09-27T07:51:11.880Z,11.50
2022-09-27T07:53:39.692Z,9.20
2022-09-27T07:56:06.405Z,8.70
2022-09-27T07:58:34.565Z,8.90
2022-09-27T08:01:02.641Z,8.70
2022-09-27T08:03:29.463Z,9.80
2022-09-27T08:05:56.086Z,8.80
2022-09-27T08:08:22.971Z,9.90
2022-09-27T08:10:49.592Z,8.60
2022-09-27T08:13:20.178Z,9.00
2022-09-27T08:15:48.389Z,9.00
2022-09-27T08:18:15.039Z,8.70
2022-09-27T08:20:41.651Z,8.90
2022-09-27T08:23:08.387Z,9.30
2022-09-27T08:25:35.280Z,8.90
2022-09-27T08:28:03.420Z,10.50
2022-09-27T08:30:32.352Z,9.20
2022-09-27T08:32:59.513Z,8.30
2022-09-27T08:35:27.981Z,9.70
2022-09-27T08:37:55.709Z,9.30
2022-09-27T08:40:46.668Z,10.30
2022-09-27T08:43:42.473Z,9.30
2022-09-27T08:46:28.919Z,9.40
2022-09-27T08:48:59.461Z,9.40
2022-09-27T08:51:29.932Z,9.00
2022-09-27T08:54:00.736Z,10.80
2022-09-27T08:56:27.305Z,9.90
2022-09-27T08:58:58.947Z,9.40
2022-09-27T09:01:28.928Z,11.10
2022-09-27T09:03:57.754Z,8.60
2022-09-27T09:06:24.933Z,9.70
2022-09-27T09:08:57.669Z,9.70
2022-09-27T09:12:01.441Z,10.50
2022-09-27T09:14:46.383Z,10.50
2022-09-27T09:17:24.556Z,10.30
2022-09-27T09:20:01.104Z,10.20
2022-09-27T09:22:57.150Z,10.20
2022-09-27T09:25:29.325Z,10.10
2022-09-27T09:28:07.845Z,10.00
2022-09-27T09:30:37.454Z,10.00
2022-09-27T09:33:15.998Z,10.10
2022-09-27T09:35:45.567Z,10.20
2022-09-27T09:38:29.516Z,10.10
2022-09-27T09:40:59.935Z,10.00
2022-09-27T09:43:41.815Z,9.90
2022-09-27T09:46:12.524Z,10.00
2022-09-27T09:48:43.650Z,10.20
2022-09-27T09:51:13.152Z,10.30
2022-09-27T09:53:42.575Z,9.90
2022-09-27T09:56:29.960Z,10.60
2022-09-27T09:59:02.256Z,10.60
2022-09-27T10:01:35.187Z,10.50
2022-09-27T10:04:03.434Z,10.50
2022-09-27T10:06:31.188Z,10.30
2022-09-27T10:08:57.869Z,9.00
2022-09-27T10:11:25.727Z,9.50
2022-09-27T10:13:53.286Z,8.70
2022-09-27T10:16:20.865Z,10.80
2022-09-27T10:18:50.187Z,10.70
2022-09-27T10:21:22.213Z,10.10
2022-09-27T10:24:04.476Z,9.80
2022-09-27T10:26:31.850Z,10.90
2022-09-27T10:29:00.702Z,8.40
2022-09-27T10:31:35.384Z,8.70
2022-09-27T10:34:05.567Z,9.20
2022-09-27T10:36:33.321Z,9.60
2022-09-27T10:39:01.025Z,9.20
2022-09-27T10:41:29.027Z,9.20
2022-09-27T10:43:57.493Z,7.40
2022-09-27T10:46:27.175Z,10.90
2022-09-27T10:49:13.932Z,10.10
2022-09-27T10:51:43.483Z,10.00
2022-09-27T10:54:36.353Z,9.10
2022-09-27T10:57:04.877Z,10.10
2022-09-27T10:59:33.617Z,9.70
2022-09-27T11:02:00.874Z,9.70
2022-09-27T11:04:32.324Z,9.40
2022-09-27T11:07:16.025Z,10.40
2022-09-27T11:09:48.084Z,10.30
2022-09-27T11:12:15.254Z,10.40
2022-09-27T11:14:42.040Z,9.80
2022-09-27T11:17:20.171Z,9.90
2022-09-27T11:19:58.377Z,10.30
2022-09-27T11:22:38.876Z,10.30
2022-09-27T11:25:08.602Z,10.40
2022-09-27T11:27:38.147Z,10.50
2022-09-27T11:30:13.837Z,10.50
2022-09-27T11:37:41.527Z,10.90
2022-09-27T11:40:21.526Z,11.10
2022-09-27T11:42:57.645Z,11.30
2022-09-27T11:48:29.387Z,11.60
2022-09-27T11:50:56.536Z,12.10
2022-09-27T11:53:48.748Z,11.60
2022-09-27T11:56:23.265Z,12.00
2022-09-27T11:59:08.676Z,12.00
2022-09-27T12:01:50.989Z,12.00
2022-09-27T12:04:17.505Z,12.00
2022-09-27T12:06:50.912Z,11.60
2022-09-27T12:09:23.021Z,12.00
2022-09-27T12:11:55.856Z,11.90
2022-09-27T12:14:40.617Z,12.40
2022-09-27T12:17:19.736Z,12.50
2022-09-27T12:19:51.960Z,12.70
2022-09-27T12:22:40.274Z,13.40
2022-09-27T12:25:17.032Z,13.30
2022-09-27T12:28:07.066Z,12.50
2022-09-27T12:30:37.472Z,13.00
2022-09-27T12:33:11.222Z,11.80
2022-09-27T12:35:44.300Z,12.80
2022-09-27T12:38:15.704Z,12.90
2022-09-27T12:40:45.261Z,12.60
2022-09-27T12:43:19.018Z,12.10
2022-09-27T12:46:01.400Z,12.20
2022-09-27T12:48:42.972Z,11.40
2022-09-27T12:51:13.994Z,11.30
2022-09-27T12:54:00.795Z,10.80
2022-09-27T12:56:49.859Z,10.30
2022-09-27T12:59:21.357Z,10.10
2022-09-27T13:01:55.273Z,9.70
2022-09-27T13:04:25.032Z,9.50
2022-09-27T13:06:51.572Z,9.40
2022-09-27T13:09:28.534Z,9.40
2022-09-27T13:12:03.489Z,9.60
2022-09-27T13:14:33.034Z,9.70
2022-09-27T13:16:59.677Z,9.90
2022-09-27T13:19:35.398Z,9.60
2022-09-27T13:22:04.130Z,10.00
2022-09-27T13:24:40.676Z,10.00
2022-09-27T13:27:23.092Z,10.00
2022-09-27T13:30:12.841Z,9.90
2022-09-27T13:32:40.961Z,9.90
2022-09-27T13:35:24.666Z,9.70
2022-09-27T13:38:00.876Z,9.50
2022-09-27T13:40:27.788Z,9.20
2022-09-27T13:42:57.447Z,9.00
2022-09-27T13:46:02.801Z,8.90
2022-09-27T13:48:32.338Z,8.80
2022-09-27T13:51:02.259Z,8.70
2022-09-27T13:53:39.444Z,7.90
2022-09-27T13:56:07.088Z,8.70
2022-09-27T13:58:51.537Z,8.80
2022-09-27T14:01:21.437Z,8.90
2022-09-27T14:03:49.453Z,9.10
2022-09-27T14:06:28.893Z,9.70
2022-09-27T14:08:57.727Z,9.30
2022-09-27T14:13:52.148Z,9.50
2022-09-27T14:16:20.681Z,8.80
2022-09-27T14:18:52.353Z,9.10
2022-09-27T14:21:27.009Z,9.60
2022-09-27T14:23:53.680Z,10.80
2022-09-27T14:26:22.610Z,11.60
2022-09-27T14:28:49.241Z,12.00
2022-09-27T14:33:45.250Z,14.10
2022-09-27T14:36:49.765Z,14.90
2022-09-27T14:39:20.888Z,14.60
2022-09-27T14:41:47.760Z,14.50
2022-09-27T14:44:15.218Z,13.30
2022-09-27T14:46:41.934Z,12.80
2022-09-27T14:49:13.955Z,12.20
2022-09-27T14:51:40.672Z,12.30
2022-09-27T14:54:19.733Z,12.20
2022-09-27T14:56:50.123Z,12.00
2022-09-27T14:59:27.092Z,12.00
2022-09-27T15:01:54.210Z,11.90
2022-09-27T15:04:22.141Z,12.30
2022-09-27T15:06:49.729Z,11.80
2022-09-27T15:09:16.764Z,11.70
2022-09-27T15:11:44.533Z,11.90
2022-09-27T15:14:13.861Z,11.50
2022-09-27T15:16:42.112Z,11.30
2022-09-27T15:19:15.610Z,11.20
2022-09-27T15:21:42.307Z,11.30
2022-09-27T15:24:27.699Z,11.70
2022-09-27T15:26:54.565Z,11.40
2022-09-27T15:29:22.714Z,11.50
2022-09-27T15:31:59.564Z,11.20
2022-09-27T15:34:29.922Z,11.60
2022-09-27T15:37:03.584Z,11.80
2022-09-27T15:39:32.312Z,12.20
2022-09-27T15:42:17.630Z,12.30
2022-09-27T15:44:48.886Z,12.10
2022-09-27T15:47:38.707Z,12.20
2022-09-27T15:50:17.547Z,12.20
2022-09-27T15:52:44.099Z,11.40
2022-09-27T15:55:14.231Z,11.20
2022-09-27T15:57:41.247Z,11.50
2022-09-27T16:00:12.385Z,12.10
2022-09-27T16:02:38.936Z,11.60
2022-09-27T16:05:05.709Z,11.60
2022-09-27T16:07:32.261Z,11.30
2022-09-27T16:09:58.906Z,11.30
2022-09-27T16:12:27.323Z,10.80
2022-09-27T16:14:53.863Z,10.80
2022-09-27T16:17:20.389Z,10.00
2022-09-27T16:19:46.978Z,10.40
2022-09-27T16:22:13.699Z,10.40
2022-09-27T16:24:40.369Z,10.50
2022-09-27T16:27:06.949Z,9.90
2022-09-27T16:29:33.806Z,10.20
2022-09-27T16:32:01.563Z,10.10
2022-09-27T16:34:28.381Z,10.00
2022-09-27T16:36:55.006Z,9.60
2022-09-27T16:39:21.578Z,9.50
2022-09-27T16:41:48.598Z,9.70
2022-09-27T16:44:17.305Z,9.70
2022-09-27T16:46:47.873Z,9.70
2022-09-27T16:49:33.295Z,9.60
2022-09-27T16:52:00.107Z,9.40
2022-09-27T16:54:29.103Z,9.60
2022-09-27T16:56:59.182Z,9.50
2022-09-27T16:59:26.891Z,9.50
2022-09-27T17:01:57.751Z,9.50
2022-09-27T17:06:52.142Z,9.50
2022-09-27T17:09:18.643Z,9.40
2022-09-27T17:11:45.177Z,9.40
2022-09-27T17:14:14.392Z,9.40
2022-09-27T17:19:08.671Z,9.30
2022-09-27T17:21:38.154Z,9.30
2022-09-27T17:24:05.186Z,9.30
2022-09-27T17:26:31.977Z,9.30
2022-09-27T17:29:00.745Z,9.30
2022-09-27T17:31:28.681Z,9.20
2022-09-27T17:33:57.812Z,9.20
2022-09-27T17:36:26.218Z,9.20
2022-09-27T17:38:53.023Z,9.10
2022-09-27T17:41:21.171Z,9.00
2022-09-27T17:43:50.657Z,8.60
2022-09-27T17:46:21.965Z,8.90
2022-09-27T17:49:07.286Z,8.90
2022-09-27T17:51:36.544Z,8.80
2022-09-27T17:54:04.688Z,8.80
2022-09-27T17:56:34.249Z,8.80
2022-09-27T17:59:01.115Z,8.80
2022-09-27T18:01:28.878Z,8.80
2022-09-27T18:03:57.366Z,8.80
2022-09-27T18:06:23.940Z,8.90
2022-09-27T18:08:55.061Z,8.90
2022-09-27T18:11:27.535Z,8.80
2022-09-27T18:14:01.654Z,8.70
2022-09-27T18:16:32.357Z,8.70
2022-09-27T18:18:59.938Z,8.60
2022-09-27T18:21:31.453Z,8.70
2022-09-27T18:24:02.831Z,8.60
2022-09-27T18:26:29.436Z,8.60
2022-09-27T18:29:01.079Z,10.50
2022-09-27T18:31:27.921Z,8.50
2022-09-27T18:33:58.423Z,8.50
2022-09-27T18:36:25.706Z,8.40
2022-09-27T18:38:53.883Z,8.20
2022-09-27T18:41:21.555Z,7.60
2022-09-27T18:43:53.330Z,8.00
2022-09-27T18:49:05.097Z,8.10
2022-09-27T18:51:32.158Z,8.10
2022-09-27T18:54:03.180Z,8.00
2022-09-27T18:56:29.847Z,8.30
2022-09-27T18:58:57.091Z,8.20
2022-09-27T19:01:25.546Z,8.20
2022-09-27T19:03:52.523Z,8.30
2022-09-27T19:06:20.667Z,8.30
2022-09-27T19:08:47.628Z,8.30
2022-09-27T19:11:16.063Z,8.30
2022-09-27T19:13:50.950Z,8.30
2022-09-27T19:16:18.292Z,8.40
2022-09-27T19:18:44.885Z,8.50
2022-09-27T19:21:12.261Z,8.40
2022-09-27T19:23:39.016Z,8.30
2022-09-27T19:26:06.993Z,8.40
2022-09-27T19:28:34.428Z,9.50
2022-09-27T19:31:04.221Z,8.50
2022-09-27T19:33:31.985Z,8.40
2022-09-27T19:36:02.020Z,8.50
2022-09-27T19:38:32.307Z,8.50
2022-09-27T19:40:59.550Z,8.40
2022-09-27T19:43:26.344Z,8.30
2022-09-27T19:45:53.294Z,8.50
2022-09-27T19:48:20.041Z,8.40
2022-09-27T19:50:59.778Z,8.40
2022-09-27T19:53:31.764Z,8.40
2022-09-27T19:56:06.058Z,8.40
2022-09-27T19:58:33.732Z,8.50
2022-09-27T20:01:06.284Z,8.40
2022-09-27T20:03:33.251Z,8.40
2022-09-27T20:06:00.179Z,8.40
2022-09-27T20:08:27.611Z,8.20
2022-09-27T20:11:05.355Z,8.30
2022-09-27T20:13:33.910Z,8.40
2022-09-27T20:16:01.422Z,8.30
2022-09-27T20:18:28.064Z,8.30
2022-09-27T20:20:54.586Z,8.30
2022-09-27T20:23:24.806Z,8.30
2022-09-27T20:25:51.625Z,8.20
2022-09-27T20:28:18.139Z,8.30
2022-09-27T20:30:54.785Z,8.40
2022-09-27T20:33:40.026Z,8.10
2022-09-27T20:36:16.730Z,8.30
2022-09-27T20:38:47.678Z,8.40
2022-09-27T20:41:17.440Z,8.40
2022-09-27T20:43:44.679Z,8.40
2022-09-27T20:46:15.949Z,8.80
2022-09-27T20:48:43.159Z,8.40
2022-09-27T20:51:11.128Z,8.30
2022-09-27T20:53:37.768Z,8.30
2022-09-27T20:56:04.529Z,8.40
2022-09-27T20:58:31.832Z,8.40
2022-09-27T21:01:04.731Z,8.70
2022-09-27T21:03:31.568Z,8.20
2022-09-27T21:05:58.724Z,8.30
2022-09-27T21:08:25.493Z,8.20
2022-09-27T21:10:53.855Z,8.20
2022-09-27T21:13:21.053Z,8.20
2022-09-27T21:15:47.712Z,8.40
2022-09-27T21:18:14.319Z,8.30
2022-09-27T21:20:40.947Z,8.30
2022-09-27T21:23:07.592Z,8.10
2022-09-27T21:25:34.148Z,7.90
2022-09-27T21:28:04.141Z,8.10
2022-09-27T21:30:31.649Z,8.10
2022-09-27T21:32:58.417Z,8.00
2022-09-27T21:35:25.135Z,7.90
2022-09-27T21:37:51.750Z,8.10
2022-09-27T21:40:18.502Z,8.00
2022-09-27T21:42:45.130Z,8.10
2022-09-27T21:45:11.881Z,8.10
2022-09-27T21:47:38.526Z,8.10
2022-09-27T21:50:05.315Z,8.20
2022-09-27T21:52:31.876Z,8.10
2022-09-27T21:54:58.502Z,8.00
2022-09-27T21:57:25.175Z,7.70
2022-09-27T21:59:51.755Z,7.60
2022-09-27T22:02:19.532Z,7.60
2022-09-27T22:04:48.105Z,7.50
2022-09-27T22:07:14.739Z,7.40
2022-09-27T22:09:41.356Z,7.60
2022-09-27T22:12:08.186Z,7.60
2022-09-27T22:14:34.923Z,7.30
2022-09-27T22:17:01.533Z,7.70
2022-09-27T22:19:28.157Z,7.60
2022-09-27T22:21:54.774Z,7.40
2022-09-27T22:24:21.413Z,7.20
2022-09-27T22:26:50.034Z,8.10
2022-09-27T22:29:16.816Z,7.30
2022-09-27T22:31:43.725Z,7.50
2022-09-27T22:34:18.520Z,7.50
2022-09-27T22:36:45.429Z,7.40
2022-09-27T22:39:12.476Z,7.30
2022-09-27T22:41:39.218Z,7.20
2022-09-27T22:44:05.892Z,7.20
2022-09-27T22:46:32.552Z,8.10
2022-09-27T22:48:59.206Z,7.20
2022-09-27T22:51:25.828Z,7.30
2022-09-27T22:53:52.490Z,6.90
2022-09-27T22:56:19.938Z,6.80
2022-09-27T22:58:47.536Z,6.90
2022-09-27T23:01:16.651Z,6.70
2022-09-27T23:03:44.023Z,6.90
2022-09-27T23:06:11.015Z,6.60
2022-09-27T23:08:38.012Z,6.90
2022-09-27T23:11:09.150Z,7.00
2022-09-27T23:13:37.594Z,7.00
2022-09-27T23:16:05.749Z,6.20
2022-09-27T23:18:33.316Z,7.00
2022-09-27T23:21:04.511Z,6.80
2022-09-27T23:23:31.805Z,8.30
2022-09-27T23:25:59.058Z,7.10
2022-09-27T23:28:26.418Z,6.60
2022-09-27T23:30:53.049Z,6.40
2022-09-27T23:33:20.119Z,6.30
2022-09-27T23:35:47.302Z,6.00
2022-09-27T23:38:14.632Z,6.30
2022-09-27T23:40:41.895Z,6.70
2022-09-27T23:43:09.194Z,6.80
2022-09-27T23:45:36.453Z,6.70
2022-09-27T23:48:04.119Z,6.50
2022-09-27T23:50:32.422Z,7.10
2022-09-27T23:52:59.563Z,6.80
2022-09-27T23:55:26.301Z,6.70
2022-09-27T23:57:53.004Z,6.30
